createdAt,value
2024-01-21T05:53:24.807Z,97.46
2024-01-21T05:55:52.901Z,98.05
2024-01-21T05:58:20.552Z,97.04
2024-01-21T06:00:48.337Z,96.33
2024-01-21T06:03:16.205Z,95.42
2024-01-21T06:05:43.965Z,95.42
2024-01-21T06:08:11.894Z,95.05
2024-01-21T06:10:39.602Z,94.54
2024-01-21T06:13:07.330Z,94.44
2024-01-21T06:15:35.255Z,94.48
2024-01-21T06:18:03.033Z,94.15
2024-01-21T06:20:30.857Z,94.34
2024-01-21T06:22:59.152Z,94.07
2024-01-21T06:25:26.926Z,93.89
2024-01-21T06:27:54.615Z,93.50
2024-01-21T06:30:24.376Z,92.84
2024-01-21T06:32:59.541Z,92.63
2024-01-21T06:35:31.271Z,92.62
2024-01-21T06:37:59.392Z,92.94
2024-01-21T06:40:27.122Z,93.13
2024-01-21T06:42:54.823Z,93.39
2024-01-21T06:45:22.784Z,92.89
2024-01-21T06:47:51.707Z,93.30
2024-01-21T06:50:20.478Z,93.09
2024-01-21T06:52:48.353Z,92.76
2024-01-21T06:55:16.095Z,92.39
2024-01-21T06:57:43.998Z,92.68
2024-01-21T07:00:13.035Z,92.29
2024-01-21T07:02:40.625Z,93.06
2024-01-21T07:05:09.099Z,93.47
2024-01-21T07:07:36.892Z,92.59
2024-01-21T07:10:04.863Z,92.88
2024-01-21T07:12:32.495Z,92.98
2024-01-21T07:15:00.368Z,92.58
2024-01-21T07:17:27.990Z,93.27
2024-01-21T07:19:55.826Z,92.93
2024-01-21T07:22:23.475Z,93.47
2024-01-21T07:24:51.168Z,93.52
2024-01-21T07:27:18.912Z,93.80
2024-01-21T07:29:46.714Z,94.00
2024-01-21T07:32:14.274Z,93.61
2024-01-21T07:34:42.154Z,93.74
2024-01-21T07:37:09.917Z,94.58
2024-01-21T07:39:37.545Z,95.03
2024-01-21T07:42:05.476Z,95.02
2024-01-21T07:44:33.206Z,94.93
2024-01-21T07:47:00.764Z,95.66
2024-01-21T07:49:28.486Z,95.86
2024-01-21T07:51:56.263Z,96.08
2024-01-21T07:54:23.969Z,95.94
2024-01-21T07:56:51.505Z,96.14
2024-01-21T07:59:19.321Z,96.25
2024-01-21T08:01:47.017Z,96.21
2024-01-21T08:04:15.156Z,95.99
2024-01-21T08:06:43.310Z,96.36
2024-01-21T08:09:11.031Z,96.25
2024-01-21T08:11:38.700Z,96.23
2024-01-21T08:14:06.678Z,95.87
2024-01-21T08:16:34.268Z,96.07
2024-01-21T08:19:15.346Z,96.41
2024-01-21T08:21:44.128Z,96.57
2024-01-21T08:24:12.798Z,96.66
2024-01-21T08:26:41.403Z,96.85
2024-01-21T08:29:09.174Z,97.44
2024-01-21T08:31:44.256Z,97.40
2024-01-21T08:34:12.737Z,96.54
2024-01-21T08:36:46.122Z,96.25
2024-01-21T08:39:14.219Z,96.44
2024-01-21T08:41:42.337Z,96.24
2024-01-21T08:44:10.269Z,96.14
2024-01-21T08:46:39.258Z,96.46
2024-01-21T08:49:07.134Z,96.55
2024-01-21T08:51:36.044Z,96.71
2024-01-21T08:54:04.433Z,96.78
2024-01-21T08:56:33.891Z,96.92
2024-01-21T08:59:01.866Z,97.22
2024-01-21T09:01:30.349Z,96.94
2024-01-21T09:03:59.465Z,97.25
2024-01-21T09:06:27.358Z,97.44
2024-01-21T09:08:56.336Z,97.53
2024-01-21T09:11:24.935Z,97.40
2024-01-21T09:13:52.699Z,97.49
2024-01-21T09:16:21.312Z,97.91
2024-01-21T09:18:53.528Z,97.76
2024-01-21T09:21:27.448Z,98.08
2024-01-21T09:24:06.378Z,98.54
2024-01-21T09:26:36.377Z,98.57
2024-01-21T09:29:05.024Z,98.72
2024-01-21T09:31:34.413Z,98.63
2024-01-21T09:34:02.731Z,98.36
2024-01-21T09:36:30.758Z,98.79
2024-01-21T09:38:58.527Z,98.65
2024-01-21T09:41:51.707Z,98.83
2024-01-21T09:44:32.317Z,98.30
2024-01-21T09:47:11.864Z,98.61
2024-01-21T09:49:43.634Z,98.49
2024-01-21T09:52:17.158Z,98.37
2024-01-21T09:55:05.673Z,98.57
2024-01-21T09:58:00.885Z,98.53
2024-01-21T10:00:38.536Z,98.34
2024-01-21T10:06:18.525Z,98.52
2024-01-21T10:08:59.598Z,98.61
2024-01-21T10:11:38.517Z,98.60
2024-01-21T10:14:12.188Z,98.59
2024-01-21T10:16:51.254Z,98.30
2024-01-21T10:19:49.010Z,98.30
2024-01-21T10:22:33.683Z,97.89
2024-01-21T10:28:12.873Z,97.87
2024-01-21T10:30:48.162Z,97.38
2024-01-21T10:36:08.769Z,96.76
2024-01-21T10:38:53.047Z,96.38
2024-01-21T10:41:35.380Z,96.21
2024-01-21T10:44:11.286Z,96.58
2024-01-21T10:46:46.243Z,96.54
2024-01-21T10:49:21.721Z,96.54
2024-01-21T10:51:58.189Z,96.88
2024-01-21T10:54:40.182Z,97.38
2024-01-21T10:57:08.841Z,97.22
2024-01-21T10:59:42.600Z,97.23
2024-01-21T11:02:14.554Z,96.73
2024-01-21T11:04:49.645Z,96.60
2024-01-21T11:07:20.775Z,96.69
2024-01-21T11:09:51.115Z,96.76
2024-01-21T11:12:19.958Z,96.85
2024-01-21T11:14:49.131Z,96.92
2024-01-21T11:17:21.321Z,97.34
2024-01-21T11:19:56.785Z,97.25
2024-01-21T11:22:27.231Z,97.20
2024-01-21T11:24:57.858Z,97.17
2024-01-21T11:27:29.406Z,97.32
2024-01-21T11:29:59.396Z,97.09
2024-01-21T11:32:30.709Z,97.14
2024-01-21T11:35:18.024Z,96.70
2024-01-21T11:37:53.798Z,96.67
2024-01-21T11:40:21.786Z,96.88
2024-01-21T11:42:51.820Z,97.10
2024-01-21T11:45:20.883Z,96.82
2024-01-21T11:47:48.810Z,96.53
2024-01-21T11:50:19.470Z,96.80
2024-01-21T11:52:47.602Z,97.07
2024-01-21T11:55:22.481Z,96.81
2024-01-21T11:57:50.368Z,96.83
2024-01-21T12:00:18.315Z,96.53
2024-01-21T12:02:47.894Z,96.34
2024-01-21T12:05:19.832Z,96.38
2024-01-21T12:07:48.250Z,96.49
2024-01-21T12:10:16.230Z,96.45
2024-01-21T12:12:44.025Z,96.54
2024-01-21T12:15:11.980Z,96.79
2024-01-21T12:17:39.774Z,96.52
2024-01-21T12:20:09.110Z,96.42
2024-01-21T12:22:38.677Z,96.54
2024-01-21T12:25:09.966Z,96.18
2024-01-21T12:27:37.921Z,96.28
2024-01-21T12:30:12.729Z,96.16
2024-01-21T12:32:52.969Z,96.44
2024-01-21T12:35:24.314Z,96.70
2024-01-21T12:37:52.230Z,96.49
2024-01-21T12:40:20.039Z,96.88
2024-01-21T12:42:47.997Z,96.50
2024-01-21T12:45:15.852Z,96.31
2024-01-21T12:47:43.522Z,96.06
2024-01-21T12:50:11.728Z,96.32
2024-01-21T12:52:39.464Z,96.00
2024-01-21T12:55:08.403Z,95.89
2024-01-21T12:57:36.050Z,96.20
2024-01-21T13:00:05.857Z,96.08
2024-01-21T13:02:33.517Z,95.98
2024-01-21T13:05:01.200Z,95.99
2024-01-21T13:07:29.386Z,95.87
2024-01-21T13:09:58.709Z,95.75
2024-01-21T13:12:27.196Z,95.59
2024-01-21T13:14:56.880Z,95.52
2024-01-21T13:17:25.163Z,95.75
2024-01-21T13:19:53.246Z,95.49
2024-01-21T13:22:21.168Z,95.29
2024-01-21T13:24:49.076Z,95.43
2024-01-21T13:27:28.728Z,95.50
2024-01-21T13:30:16.935Z,95.87
2024-01-21T13:32:44.938Z,96.24
2024-01-21T13:35:13.135Z,96.18
2024-01-21T13:37:41.793Z,96.11
2024-01-21T13:40:10.318Z,96.45
2024-01-21T13:42:39.187Z,96.27
2024-01-21T13:45:09.977Z,96.10
2024-01-21T13:47:38.910Z,96.10
2024-01-21T13:50:06.934Z,95.54
2024-01-21T13:52:34.969Z,95.17
2024-01-21T13:55:06.723Z,95.07
2024-01-21T13:57:34.563Z,95.46
2024-01-21T14:00:02.331Z,95.50
2024-01-21T14:02:32.605Z,95.41
2024-01-21T14:05:00.850Z,95.38
2024-01-21T14:07:28.431Z,95.14
2024-01-21T14:09:58.216Z,95.11
2024-01-21T14:12:26.251Z,95.12
2024-01-21T14:14:54.102Z,95.22
2024-01-21T14:17:26.231Z,95.52
2024-01-21T14:19:54.712Z,95.20
2024-01-21T14:22:23.038Z,94.97
2024-01-21T14:24:52.388Z,95.12
2024-01-21T14:27:20.610Z,94.88
2024-01-21T14:29:57.381Z,95.03
2024-01-21T14:32:26.359Z,95.31
2024-01-21T14:34:53.975Z,94.90
2024-01-21T14:37:22.358Z,94.88
2024-01-21T14:39:51.088Z,94.51
2024-01-21T14:42:18.905Z,94.47
2024-01-21T14:44:46.574Z,93.90
2024-01-21T14:47:14.871Z,93.58
2024-01-21T14:49:42.569Z,93.52
2024-01-21T14:52:10.286Z,93.91
2024-01-21T14:54:38.801Z,94.11
2024-01-21T14:57:06.695Z,93.79
2024-01-21T14:59:35.355Z,93.49
2024-01-21T15:02:03.920Z,93.59
2024-01-21T15:04:33.732Z,93.80
2024-01-21T15:07:01.670Z,93.88
2024-01-21T15:09:29.563Z,93.71
2024-01-21T15:11:57.284Z,94.08
2024-01-21T15:14:33.139Z,93.83
2024-01-21T15:17:00.977Z,93.78
2024-01-21T15:19:28.658Z,93.83
2024-01-21T15:21:56.872Z,93.72
2024-01-21T15:24:24.843Z,93.66
2024-01-21T15:26:53.291Z,93.15
2024-01-21T15:29:20.947Z,93.09
2024-01-21T15:31:48.680Z,93.47
2024-01-21T15:34:16.365Z,93.47
2024-01-21T15:36:44.149Z,93.10
2024-01-21T15:39:12.767Z,93.02
2024-01-21T15:41:41.412Z,93.04
2024-01-21T15:44:09.519Z,93.04
2024-01-21T15:46:37.710Z,93.18
2024-01-21T15:49:05.395Z,92.57
2024-01-21T15:51:33.767Z,92.58
2024-01-21T15:54:01.606Z,91.98
2024-01-21T15:56:30.931Z,91.63
2024-01-21T15:59:01.564Z,91.26
2024-01-21T16:01:29.966Z,91.28
2024-01-21T16:03:58.884Z,91.76
2024-01-21T16:06:27.149Z,91.83
2024-01-21T16:08:55.771Z,91.50
2024-01-21T16:11:23.809Z,92.04
2024-01-21T16:13:52.493Z,92.13
2024-01-21T16:16:20.291Z,92.41
2024-01-21T16:18:48.112Z,92.42
2024-01-21T16:21:16.378Z,93.34
2024-01-21T16:23:44.634Z,93.45
2024-01-21T16:26:12.700Z,93.14
2024-01-21T16:28:41.105Z,92.78
2024-01-21T16:31:09.337Z,92.83
2024-01-21T16:33:36.974Z,92.83
2024-01-21T16:36:05.002Z,92.77
2024-01-21T16:38:32.758Z,92.69
2024-01-21T16:41:00.420Z,93.05
2024-01-21T16:43:28.381Z,93.00
2024-01-21T16:45:56.280Z,93.10
2024-01-21T16:48:25.380Z,93.15
2024-01-21T16:50:58.290Z,93.38
2024-01-21T16:53:30.990Z,93.15
2024-01-21T16:56:01.193Z,93.32
2024-01-21T16:58:29.776Z,93.15
2024-01-21T17:01:01.253Z,93.22
2024-01-21T17:03:30.126Z,93.38
2024-01-21T17:05:58.326Z,93.30
2024-01-21T17:08:26.256Z,93.60
2024-01-21T17:11:11.890Z,93.65
2024-01-21T17:13:40.705Z,93.71
2024-01-21T17:16:09.341Z,93.82
2024-01-21T17:18:50.920Z,94.27
2024-01-21T17:21:18.909Z,94.36
2024-01-21T17:23:46.904Z,94.40
2024-01-21T17:26:16.201Z,94.28
2024-01-21T17:28:45.971Z,94.58
2024-01-21T17:31:13.634Z,94.51
2024-01-21T17:33:43.348Z,94.88
2024-01-21T17:36:14.197Z,94.59
2024-01-21T17:38:42.049Z,94.56
2024-01-21T17:41:09.857Z,94.71
2024-01-21T17:43:38.135Z,94.62
2024-01-21T17:46:09.475Z,94.54
2024-01-21T17:48:37.447Z,94.49
2024-01-21T17:51:05.878Z,94.36
2024-01-21T17:53:35.127Z,94.24
2024-01-21T17:56:03.093Z,94.04
2024-01-21T17:58:31.037Z,94.22
2024-01-21T18:01:00.034Z,94.05
2024-01-21T18:03:28.012Z,93.57
2024-01-21T18:05:55.850Z,93.56
2024-01-21T18:08:23.702Z,93.54
2024-01-21T18:10:52.948Z,93.51
2024-01-21T18:13:20.662Z,93.61
2024-01-21T18:15:48.367Z,93.74
2024-01-21T18:18:16.172Z,93.99
